Time;durP1;ratioP1;P1;durP2;ratioP2;P2;SDS_P1;SDS_P2;PMS_P1;PMS_P2;Temp;Humidity;BMP_temperature;BMP_pressure;BME280_temperature;BME280_humidity;BME280_pressure;Samples;Min_cycle;Max_cycle;Signal;HPM_P1;HPM_P2
2022/03/23 00:00:53;;;;;;;10.90;6.57;;;11.40;57.00;;;;;;2052070;28;20482;-85
2022/03/23 00:01:54;;;;;;;11.18;6.30;;;11.40;57.10;;;;;;2066504;28;20046;-85
2022/03/23 00:02:55;;;;;;;12.73;6.70;;;11.40;57.10;;;;;;2065305;28;20373;-85
2022/03/23 00:03:55;;;;;;;10.73;6.60;;;11.40;57.20;;;;;;2065123;28;20054;-84
2022/03/23 00:04:56;;;;;;;10.88;6.47;;;11.40;57.20;;;;;;2071895;28;20026;-85
2022/03/23 00:05:56;;;;;;;11.77;6.65;;;11.40;57.20;;;;;;2059814;28;20520;-84
2022/03/23 00:06:59;;;;;;;11.18;6.72;;;11.30;57.80;;;;;;2059019;28;20035;-84
2022/03/23 00:08:00;;;;;;;12.25;6.90;;;11.30;57.20;;;;;;2060612;28;20033;-85
2022/03/23 00:09:02;;;;;;;13.02;6.82;;;11.30;57.30;;;;;;2064349;28;20069;-85
2022/03/23 00:10:04;;;;;;;11.00;6.55;;;11.30;57.30;;;;;;2071819;28;20034;-85
2022/03/23 00:11:05;;;;;;;12.60;6.63;;;11.30;57.30;;;;;;2073426;28;20043;-85
2022/03/23 00:12:07;;;;;;;11.70;6.60;;;11.30;57.30;;;;;;2073049;28;20122;-85
2022/03/23 00:13:08;;;;;;;12.40;6.85;;;11.30;57.30;;;;;;2057293;28;20026;-85
2022/03/23 00:14:09;;;;;;;12.45;7.18;;;11.30;57.40;;;;;;2041166;29;20103;-85
2022/03/23 00:15:11;;;;;;;10.45;6.50;;;11.30;57.40;;;;;;2049110;28;20462;-85
2022/03/23 00:16:12;;;;;;;12.23;6.82;;;11.20;57.40;;;;;;2054739;28;20033;-85
2022/03/23 00:17:12;;;;;;;13.85;7.13;;;11.20;57.50;;;;;;2071668;28;20045;-85
2022/03/23 00:18:13;;;;;;;12.57;6.30;;;11.20;57.50;;;;;;2072188;28;20030;-85
2022/03/23 00:19:14;;;;;;;12.48;7.00;;;11.20;57.50;;;;;;2072216;28;20138;-85
2022/03/23 00:20:15;;;;;;;12.15;7.03;;;11.20;57.50;;;;;;2055015;28;20561;-85
2022/03/23 00:21:15;;;;;;;11.00;6.75;;;11.20;57.60;;;;;;2041235;28;20040;-85
2022/03/23 00:22:17;;;;;;;11.48;6.80;;;11.20;57.70;;;;;;2056936;28;20022;-85
2022/03/23 00:23:17;;;;;;;11.13;6.55;;;11.20;57.70;;;;;;2073311;28;20418;-85
2022/03/23 00:24:18;;;;;;;10.05;6.63;;;11.10;57.70;;;;;;2073354;28;20033;-85
2022/03/23 00:25:19;;;;;;;10.45;6.80;;;11.20;57.80;;;;;;2065235;28;20121;-85
2022/03/23 00:45:49;;;;;;;9.55;5.13;;;10.90;58.40;;;;;;2060710;28;20530;-84
2022/03/23 00:46:50;;;;;;;9.30;5.63;;;10.80;57.80;;;;;;2062126;28;20125;-85
2022/03/23 00:47:51;;;;;;;10.32;5.93;;;10.80;57.80;;;;;;2061822;28;20475;-85
2022/03/23 00:48:53;;;;;;;11.43;6.15;;;10.80;57.90;;;;;;2057010;28;20034;-85
2022/03/23 00:49:53;;;;;;;10.07;5.80;;;10.80;58.10;;;;;;2063943;28;20108;-85
2022/03/23 00:50:55;;;;;;;12.27;6.30;;;10.80;58.10;;;;;;2059114;28;20517;-84
2022/03/23 00:51:56;;;;;;;13.60;6.95;;;10.70;58.10;;;;;;2054804;28;20912;-85
2022/03/23 00:52:56;;;;;;;12.10;6.70;;;10.70;58.20;;;;;;2064971;28;20030;-85
2022/03/23 00:53:57;;;;;;;11.90;7.00;;;10.70;58.20;;;;;;2064910;28;20023;-84
2022/03/23 00:54:58;;;;;;;12.43;6.70;;;10.60;58.20;;;;;;2055628;28;20030;-84
2022/03/23 00:55:58;;;;;;;11.82;6.20;;;10.60;58.30;;;;;;2056689;28;20031;-85
2022/03/23 00:56:59;;;;;;;12.20;7.05;;;10.60;58.40;;;;;;2051725;28;20133;-85
2022/03/23 00:58:00;;;;;;;12.02;6.88;;;10.60;58.40;;;;;;2064460;28;20029;-85
2022/03/23 00:59:00;;;;;;;12.07;7.20;;;10.60;58.50;;;;;;2072791;28;20041;-85
2022/03/23 01:00:03;;;;;;;13.25;7.22;;;10.60;58.50;;;;;;2059175;28;20066;-85
2022/03/23 01:01:03;;;;;;;12.60;7.10;;;10.60;58.40;;;;;;2069424;28;20029;-85
2022/03/23 01:02:05;;;;;;;11.63;6.70;;;10.50;58.40;;;;;;2072899;28;20499;-85
2022/03/23 01:03:06;;;;;;;13.02;6.40;;;10.60;58.40;;;;;;2073035;28;20030;-85
2022/03/23 01:04:06;;;;;;;11.38;7.05;;;10.60;58.20;;;;;;2065110;28;20485;-85
2022/03/23 01:05:08;;;;;;;11.27;6.75;;;10.60;58.00;;;;;;2073102;28;20484;-84
2022/03/23 01:06:08;;;;;;;11.88;6.85;;;10.60;57.90;;;;;;2064849;28;20477;-85
2022/03/23 01:07:09;;;;;;;13.30;7.43;;;10.70;57.70;;;;;;2048975;28;20183;-85
2022/03/23 01:08:10;;;;;;;11.57;7.53;;;10.70;57.60;;;;;;2064361;28;20108;-85
2022/03/23 01:09:10;;;;;;;13.75;7.43;;;10.80;57.50;;;;;;2072708;28;20450;-85
2022/03/23 01:10:14;;;;;;;11.75;7.28;;;10.80;57.50;;;;;;2055791;28;20035;-85
2022/03/23 01:11:15;;;;;;;12.35;7.65;;;10.80;57.50;;;;;;2064017;28;20026;-85
2022/03/23 01:12:15;;;;;;;10.38;6.65;;;10.80;57.50;;;;;;2070743;28;20025;-84
2022/03/23 01:13:17;;;;;;;12.25;7.35;;;10.80;57.50;;;;;;2064011;28;20473;-85
2022/03/23 01:14:19;;;;;;;11.98;7.30;;;10.80;57.50;;;;;;2065896;28;20030;-85
2022/03/23 01:15:20;;;;;;;12.65;6.80;;;10.80;57.50;;;;;;2069239;28;20506;-85
2022/03/23 01:16:21;;;;;;;14.65;7.25;;;10.80;57.50;;;;;;2064892;28;20084;-84
2022/03/23 01:17:21;;;;;;;12.05;7.22;;;10.70;57.50;;;;;;2055489;28;20165;-85
2022/03/23 01:18:22;;;;;;;13.50;7.68;;;10.70;57.40;;;;;;2071229;28;20033;-84
2022/03/23 01:19:25;;;;;;;11.48;7.00;;;10.80;57.40;;;;;;2060988;28;20042;-85
2022/03/23 01:20:25;;;;;;;11.05;6.85;;;10.80;57.20;;;;;;2050859;28;20864;-85
2022/03/23 01:21:27;;;;;;;11.65;7.18;;;10.80;57.00;;;;;;2062475;28;20069;-85
2022/03/23 01:22:28;;;;;;;11.98;7.20;;;10.80;56.90;;;;;;2066974;28;20045;-85
2022/03/23 01:23:29;;;;;;;11.20;7.10;;;10.90;56.70;;;;;;2073761;28;20468;-85
2022/03/23 01:24:29;;;;;;;11.05;6.88;;;10.90;56.60;;;;;;2071981;28;20046;-84
2022/03/23 01:25:30;;;;;;;13.15;7.40;;;10.90;56.40;;;;;;2064660;28;20061;-85
2022/03/23 01:26:31;;;;;;;12.52;7.10;;;11.00;56.40;;;;;;2065315;28;20129;-84
2022/03/23 01:27:31;;;;;;;12.52;7.45;;;11.00;56.30;;;;;;2058413;28;20064;-84
2022/03/23 01:28:32;;;;;;;12.35;7.13;;;11.00;56.30;;;;;;2056301;28;20035;-84
2022/03/23 01:29:33;;;;;;;13.27;7.25;;;11.00;56.30;;;;;;2056689;28;20031;-85
2022/03/23 01:30:33;;;;;;;12.25;7.28;;;11.00;56.30;;;;;;2069900;28;20045;-84
2022/03/23 01:31:34;;;;;;;11.85;6.63;;;11.00;56.30;;;;;;2071481;28;20038;-85
2022/03/23 01:32:35;;;;;;;12.35;7.18;;;11.00;56.20;;;;;;2062549;28;20030;-84
2022/03/23 01:33:36;;;;;;;15.02;7.25;;;11.00;56.20;;;;;;2058270;28;20057;-85
2022/03/23 01:34:37;;;;;;;11.65;6.85;;;11.00;56.20;;;;;;2069923;28;20022;-85
2022/03/23 01:35:37;;;;;;;11.02;7.15;;;11.00;56.20;;;;;;2062132;28;20061;-85
2022/03/23 01:36:38;;;;;;;11.82;6.90;;;11.00;56.10;;;;;;2062708;28;20393;-85
2022/03/23 01:37:39;;;;;;;12.43;7.20;;;11.00;56.00;;;;;;2071587;28;20069;-84
2022/03/23 01:38:40;;;;;;;12.70;6.57;;;11.00;55.90;;;;;;2063876;28;20027;-85
2022/03/23 01:39:40;;;;;;;13.52;7.82;;;11.00;55.80;;;;;;2064494;28;20035;-85
2022/03/23 01:40:41;;;;;;;11.55;7.05;;;11.00;55.80;;;;;;2071218;28;20073;-85
2022/03/23 01:41:42;;;;;;;10.65;6.78;;;11.00;55.90;;;;;;2067222;28;20027;-85
2022/03/23 01:42:43;;;;;;;11.35;6.88;;;11.00;55.90;;;;;;2057255;28;20055;-84
2022/03/23 01:43:44;;;;;;;11.25;6.90;;;10.90;55.90;;;;;;2071307;28;20417;-85
2022/03/23 01:44:44;;;;;;;11.65;6.72;;;10.90;55.90;;;;;;2073236;28;20127;-85
2022/03/23 01:45:45;;;;;;;10.88;6.78;;;10.90;56.00;;;;;;2072394;28;20124;-84
2022/03/23 01:47:00;;;;;;;10.25;6.38;;;10.90;56.10;;;;;;2063142;28;20125;-84
2022/03/23 01:48:00;;;;;;;13.85;6.82;;;10.80;56.10;;;;;;2060742;28;20547;-84
2022/03/23 01:49:01;;;;;;;11.55;6.88;;;10.80;56.20;;;;;;2072067;28;20033;-84
2022/03/23 01:50:04;;;;;;;11.82;7.38;;;10.70;56.20;;;;;;2072542;28;20034;-85
2022/03/23 01:51:04;;;;;;;12.73;7.00;;;10.70;56.20;;;;;;2063789;28;20023;-85
2022/03/23 01:52:08;;;;;;;15.20;7.25;;;10.70;56.20;;;;;;2072256;28;20545;-85
2022/03/23 01:53:08;;;;;;;14.88;7.22;;;10.70;56.10;;;;;;2067069;28;20416;-85
2022/03/23 01:54:09;;;;;;;11.93;7.18;;;10.70;56.00;;;;;;2054586;28;20043;-85
2022/03/23 01:55:14;;;;;;;11.30;7.25;;;10.70;55.80;;;;;;2064005;28;20085;-85
2022/03/23 01:56:15;;;;;;;12.35;6.95;;;10.80;55.70;;;;;;2072524;28;20150;-85
2022/03/23 01:57:17;;;;;;;13.90;7.55;;;10.80;55.60;;;;;;2056538;28;20042;-84
2022/03/23 01:58:22;;;;;;;11.25;7.30;;;10.80;55.40;;;;;;2055851;28;20031;-84
2022/03/23 01:59:23;;;;;;;11.07;6.85;;;10.80;55.40;;;;;;2072380;28;20022;-85
2022/03/23 02:00:26;;;;;;;13.20;7.28;;;10.90;55.40;;;;;;2072173;28;20048;-85
2022/03/23 02:01:28;;;;;;;12.32;7.30;;;10.80;55.30;;;;;;2072879;28;20095;-85
2022/03/23 02:02:28;;;;;;;11.45;7.03;;;10.80;55.40;;;;;;2073325;28;20033;-84
2022/03/23 02:03:29;;;;;;;10.77;6.60;;;10.80;55.40;;;;;;2064628;28;20026;-85
2022/03/23 02:04:30;;;;;;;10.27;6.43;;;10.80;55.50;;;;;;2064643;28;20046;-85
2022/03/23 02:05:30;;;;;;;11.90;6.80;;;10.80;55.60;;;;;;2071260;28;20105;-85
2022/03/23 02:06:31;;;;;;;12.77;6.90;;;10.80;55.60;;;;;;2072464;28;20061;-85
2022/03/23 02:07:32;;;;;;;13.18;7.35;;;10.70;55.70;;;;;;2072699;28;20053;-85
2022/03/23 02:08:33;;;;;;;12.30;6.80;;;10.60;55.70;;;;;;2072032;28;20033;-85
2022/03/23 02:09:34;;;;;;;10.88;6.30;;;10.60;55.80;;;;;;2079445;28;20621;-84
2022/03/23 02:10:35;;;;;;;11.05;6.53;;;10.60;55.90;;;;;;2070132;28;20026;-84
2022/03/23 02:11:38;;;;;;;12.35;7.13;;;10.60;56.00;;;;;;2060933;28;20026;-84
2022/03/23 02:12:38;;;;;;;10.65;6.40;;;10.50;55.90;;;;;;2072622;28;20033;-85
2022/03/23 02:13:39;;;;;;;12.48;6.55;;;10.50;55.90;;;;;;2072804;28;20113;-85
2022/03/23 02:14:39;;;;;;;12.00;6.53;;;10.50;56.00;;;;;;2056482;28;20039;-85
2022/03/23 02:15:40;;;;;;;10.27;6.38;;;10.50;55.90;;;;;;2056233;28;20130;-85
2022/03/23 02:16:46;;;;;;;10.18;6.57;;;10.50;55.80;;;;;;2072662;28;20065;-85
2022/03/23 02:17:52;;;;;;;11.48;6.68;;;10.50;55.80;;;;;;2064604;28;20077;-85
2022/03/23 02:18:53;;;;;;;11.40;6.90;;;10.50;55.90;;;;;;2057242;28;20039;-85
2022/03/23 02:19:54;;;;;;;10.60;6.47;;;10.50;55.90;;;;;;2049034;28;20023;-85
2022/03/23 02:20:54;;;;;;;10.88;6.75;;;10.50;56.00;;;;;;2048544;28;20071;-85
2022/03/23 02:21:55;;;;;;;11.20;6.93;;;10.40;56.00;;;;;;2038980;29;20095;-85
2022/03/23 02:22:56;;;;;;;10.68;6.47;;;10.40;56.10;;;;;;2056577;28;20121;-85
2022/03/23 02:23:57;;;;;;;10.73;6.55;;;10.40;56.20;;;;;;2080885;28;20032;-85
2022/03/23 02:24:58;;;;;;;9.98;6.35;;;10.40;56.30;;;;;;2064654;28;20026;-85
2022/03/23 02:26:00;;;;;;;10.80;7.00;;;10.40;56.40;;;;;;2072451;28;20738;-85
2022/03/23 02:27:01;;;;;;;11.25;7.00;;;10.40;56.50;;;;;;2072029;28;20076;-85
2022/03/23 02:28:02;;;;;;;12.20;6.47;;;10.30;56.50;;;;;;2063306;28;20031;-85
2022/03/23 02:29:07;;;;;;;10.25;6.57;;;10.30;56.60;;;;;;2064603;28;20030;-85
2022/03/23 02:30:09;;;;;;;10.60;6.68;;;10.20;56.60;;;;;;2064393;28;20028;-85
2022/03/23 02:31:10;;;;;;;10.43;6.40;;;10.20;56.70;;;;;;2065291;28;20043;-85
2022/03/23 02:32:12;;;;;;;10.57;5.85;;;10.20;56.70;;;;;;2070014;28;20123;-85
2022/03/23 02:33:19;;;;;;;11.07;6.80;;;10.10;56.70;;;;;;2063791;28;20027;-85
2022/03/23 02:34:19;;;;;;;11.52;7.10;;;10.10;56.80;;;;;;2065304;28;20026;-85
2022/03/23 02:35:20;;;;;;;9.93;6.50;;;10.00;56.90;;;;;;2064438;28;20483;-85
2022/03/23 02:36:21;;;;;;;11.00;7.10;;;10.00;56.90;;;;;;2061770;28;20035;-85
2022/03/23 02:37:22;;;;;;;9.30;6.20;;;10.00;56.90;;;;;;2063838;28;20053;-85
2022/03/23 02:38:22;;;;;;;10.10;6.45;;;10.00;56.90;;;;;;2056499;28;20485;-85
2022/03/23 02:39:25;;;;;;;11.20;6.60;;;10.00;56.90;;;;;;2056442;28;20035;-85
2022/03/23 02:40:26;;;;;;;12.13;7.00;;;10.00;56.80;;;;;;2071839;28;20037;-85
2022/03/23 02:41:28;;;;;;;11.02;6.68;;;10.00;56.80;;;;;;2071805;28;20187;-85
2022/03/23 02:42:28;;;;;;;9.30;6.57;;;10.00;56.80;;;;;;2071737;28;20425;-85
2022/03/23 02:43:29;;;;;;;11.88;6.85;;;10.00;56.80;;;;;;2071388;28;20126;-84
2022/03/23 02:44:32;;;;;;;13.48;6.80;;;10.00;56.80;;;;;;2064567;28;20117;-85
2022/03/23 02:45:32;;;;;;;11.77;6.75;;;10.00;56.70;;;;;;2072348;28;20117;-85
2022/03/23 02:46:35;;;;;;;12.13;6.70;;;10.00;56.60;;;;;;2072918;28;20050;-85
2022/03/23 02:47:36;;;;;;;11.90;6.85;;;10.00;56.60;;;;;;2072638;28;20042;-86
2022/03/23 02:48:36;;;;;;;11.00;6.50;;;10.00;56.70;;;;;;2072617;28;20497;-85
2022/03/23 02:49:37;;;;;;;11.48;6.95;;;9.90;56.60;;;;;;2072409;28;20065;-84
2022/03/23 02:50:37;;;;;;;10.15;6.72;;;10.00;56.70;;;;;;2072497;28;20034;-85
2022/03/23 02:51:38;;;;;;;13.15;6.65;;;9.90;56.70;;;;;;2063287;28;20035;-85
2022/03/23 03:01:52;;;;;;;10.98;6.95;;;9.90;56.70;;;;;;2064125;28;20493;-85
2022/03/23 03:01:53;;;;;;;9.77;5.70;;;9.80;57.00;;;;;;2068734;28;20064;-85
2022/03/23 03:02:54;;;;;;;10.07;5.95;;;9.80;57.10;;;;;;2072270;28;20037;-85
2022/03/23 03:03:54;;;;;;;9.40;5.97;;;9.70;57.10;;;;;;2071261;28;20507;-84
2022/03/23 03:04:55;;;;;;;10.98;5.97;;;9.70;57.10;;;;;;2065631;28;20033;-87
2022/03/23 03:05:56;;;;;;;9.02;6.28;;;9.70;57.20;;;;;;2073613;28;20034;-85
2022/03/23 03:06:58;;;;;;;10.27;6.22;;;9.70;57.30;;;;;;2072980;28;20402;-85
2022/03/23 03:09:19;;;;;;;11.05;6.50;;;9.60;57.40;;;;;;2074083;28;20076;-85
2022/03/23 03:10:21;;;;;;;11.05;6.30;;;9.60;57.40;;;;;;2058269;28;20500;-85
2022/03/23 03:11:23;;;;;;;9.93;6.35;;;9.60;57.40;;;;;;2063560;28;20034;-84
2022/03/23 03:12:23;;;;;;;11.52;6.47;;;9.60;57.40;;;;;;2081671;28;20107;-85
2022/03/23 03:13:24;;;;;;;10.60;6.28;;;9.60;57.40;;;;;;2074242;28;20365;-85
2022/03/23 03:14:24;;;;;;;9.80;6.70;;;9.50;57.30;;;;;;2064599;28;20116;-85
2022/03/23 03:15:25;;;;;;;11.20;7.03;;;9.60;57.40;;;;;;2065558;28;20030;-84
2022/03/23 03:16:26;;;;;;;12.05;7.32;;;9.50;57.30;;;;;;2066354;28;20081;-85
2022/03/23 03:17:27;;;;;;;10.35;6.47;;;9.50;57.30;;;;;;2066428;28;20431;-85
2022/03/23 03:18:31;;;;;;;10.80;6.85;;;9.50;57.20;;;;;;2065877;28;20049;-85
2022/03/23 03:19:32;;;;;;;11.07;6.95;;;9.50;57.20;;;;;;2050331;28;20447;-85
2022/03/23 03:20:33;;;;;;;11.02;7.05;;;9.50;57.10;;;;;;2056917;28;20138;-85
2022/03/23 03:21:34;;;;;;;11.88;7.25;;;9.60;57.10;;;;;;2065161;28;20034;-85
2022/03/23 03:22:38;;;;;;;11.30;6.80;;;9.60;57.00;;;;;;2057730;28;20477;-85
2022/03/23 03:23:41;;;;;;;10.65;6.60;;;9.60;57.00;;;;;;2065586;28;20121;-84
2022/03/23 03:24:42;;;;;;;12.23;7.10;;;9.60;57.00;;;;;;2074461;28;20034;-85
2022/03/23 03:25:43;;;;;;;11.63;6.90;;;9.60;56.90;;;;;;2065289;28;20366;-85
2022/03/23 03:26:44;;;;;;;11.45;6.75;;;9.60;56.80;;;;;;2065727;28;20054;-85
2022/03/23 03:27:45;;;;;;;11.10;6.93;;;9.60;56.80;;;;;;2073396;28;20056;-85
2022/03/23 03:28:46;;;;;;;10.68;6.80;;;9.60;56.80;;;;;;2073673;28;20455;-85
2022/03/23 03:29:46;;;;;;;10.23;6.50;;;9.60;56.70;;;;;;2074138;28;20034;-85
2022/03/23 03:30:47;;;;;;;12.48;7.25;;;9.60;56.60;;;;;;2072435;28;20120;-84
2022/03/23 03:31:48;;;;;;;10.63;6.78;;;9.60;56.60;;;;;;2072914;28;20492;-85
2022/03/23 03:32:49;;;;;;;11.20;6.95;;;9.70;56.60;;;;;;2070847;28;20116;-84
2022/03/23 03:33:50;;;;;;;11.23;7.20;;;9.60;56.50;;;;;;2065268;28;20046;-85
2022/03/23 03:34:50;;;;;;;11.05;7.38;;;9.60;56.50;;;;;;2073768;28;20054;-84
2022/03/23 03:35:51;;;;;;;11.20;7.13;;;9.70;56.50;;;;;;2073511;28;20499;-85
2022/03/23 03:36:51;;;;;;;11.35;7.05;;;9.60;57.10;;;;;;2065643;28;20157;-84
2022/03/23 03:37:52;;;;;;;10.80;6.95;;;9.60;56.50;;;;;;2065571;28;20467;-85
2022/03/23 03:38:54;;;;;;;11.73;7.47;;;9.60;56.50;;;;;;2073761;28;20113;-85
2022/03/23 03:39:55;;;;;;;11.98;7.10;;;9.60;57.10;;;;;;2065199;28;20757;-85
2022/03/23 03:40:55;;;;;;;11.70;7.32;;;9.60;56.50;;;;;;2057304;28;20042;-85
2022/03/23 03:41:57;;;;;;;11.77;7.20;;;9.60;56.50;;;;;;2060626;28;20058;-84
2022/03/23 03:42:57;;;;;;;10.82;7.03;;;9.60;56.50;;;;;;2049526;28;20039;-84
2022/03/23 03:43:58;;;;;;;13.38;7.78;;;9.60;56.50;;;;;;2062495;28;20050;-85
2022/03/23 03:44:59;;;;;;;12.68;7.55;;;9.60;56.50;;;;;;2065397;28;20037;-85
2022/03/23 03:46:01;;;;;;;12.43;7.55;;;9.60;56.50;;;;;;2065066;28;20035;-85
2022/03/23 03:47:01;;;;;;;12.57;7.38;;;9.60;56.50;;;;;;2061173;28;20037;-85
2022/03/23 03:48:02;;;;;;;10.60;6.78;;;9.50;56.40;;;;;;2065661;28;20081;-85
2022/03/23 03:49:03;;;;;;;13.90;8.38;;;9.60;56.40;;;;;;2073907;28;20061;-85
2022/03/23 03:50:04;;;;;;;11.15;6.78;;;9.60;56.30;;;;;;2073555;28;20038;-85
2022/03/23 03:51:06;;;;;;;11.93;7.22;;;9.60;56.30;;;;;;2065562;28;20121;-85
2022/03/23 03:52:07;;;;;;;12.57;7.10;;;9.60;56.20;;;;;;2054529;28;20065;-85
2022/03/23 03:53:08;;;;;;;11.95;7.70;;;9.60;56.30;;;;;;2065518;28;20035;-85
2022/03/23 03:54:08;;;;;;;11.77;7.68;;;9.60;56.30;;;;;;2069642;28;20022;-85
2022/03/23 03:55:09;;;;;;;12.13;7.55;;;9.60;56.30;;;;;;2057271;28;20544;-85
2022/03/23 03:56:10;;;;;;;12.27;7.63;;;9.60;56.30;;;;;;2065609;28;20042;-85
2022/03/23 03:57:11;;;;;;;11.98;7.10;;;9.50;56.30;;;;;;2074299;28;20217;-85
2022/03/23 03:58:17;;;;;;;12.77;7.90;;;9.50;56.30;;;;;;2073287;28;20033;-84
2022/03/23 03:59:18;;;;;;;11.98;7.07;;;9.50;56.30;;;;;;2065283;28;20038;-85
2022/03/23 04:00:19;;;;;;;13.13;7.93;;;9.50;56.30;;;;;;2061710;28;20027;-85
2022/03/23 04:01:20;;;;;;;12.95;7.53;;;9.50;56.30;;;;;;2057568;28;20035;-85
2022/03/23 04:02:21;;;;;;;14.00;7.60;;;9.50;56.30;;;;;;2064467;28;20084;-85
2022/03/23 04:03:22;;;;;;;11.70;7.63;;;9.50;56.20;;;;;;2073331;28;20042;-85
2022/03/23 04:04:22;;;;;;;12.68;7.72;;;9.50;56.20;;;;;;2064605;28;20034;-85
2022/03/23 04:05:23;;;;;;;12.27;7.35;;;9.50;56.20;;;;;;2063054;28;20041;-84
2022/03/23 04:06:24;;;;;;;11.45;7.25;;;9.50;56.20;;;;;;2057399;28;20117;-85
2022/03/23 04:07:24;;;;;;;11.45;7.03;;;9.50;56.10;;;;;;2057382;28;20031;-85
2022/03/23 04:08:25;;;;;;;12.18;7.28;;;9.50;56.20;;;;;;2057234;28;20022;-84
2022/03/23 04:09:25;;;;;;;11.15;7.20;;;9.50;56.30;;;;;;2069744;28;20105;-85
2022/03/23 04:10:26;;;;;;;11.40;7.13;;;9.50;56.20;;;;;;2070818;28;20477;-84
2022/03/23 04:11:28;;;;;;;12.18;7.13;;;9.50;56.30;;;;;;2071886;28;20054;-84
2022/03/23 04:12:28;;;;;;;10.88;7.10;;;9.40;56.30;;;;;;2065142;28;20105;-85
2022/03/23 04:13:29;;;;;;;12.73;7.57;;;9.40;56.70;;;;;;2071541;28;20052;-84
2022/03/23 04:14:30;;;;;;;12.10;7.50;;;9.40;56.50;;;;;;2060901;28;20489;-84
2022/03/23 04:15:30;;;;;;;12.38;7.47;;;9.40;56.50;;;;;;2072056;28;20034;-85
2022/03/23 04:16:31;;;;;;;12.18;7.47;;;9.40;56.60;;;;;;2074040;28;20030;-85
2022/03/23 04:17:31;;;;;;;13.27;7.70;;;9.40;56.70;;;;;;2073157;28;20158;-85
2022/03/23 04:18:32;;;;;;;11.85;7.18;;;9.40;56.80;;;;;;2057127;28;20038;-84
2022/03/23 04:19:33;;;;;;;13.43;7.65;;;9.30;56.80;;;;;;2057108;28;20129;-84
2022/03/23 04:20:34;;;;;;;11.38;7.05;;;9.30;56.80;;;;;;2065155;28;20034;-84
2022/03/23 04:21:35;;;;;;;11.52;7.53;;;9.30;56.80;;;;;;2062363;28;20037;-85
2022/03/23 04:22:35;;;;;;;10.25;7.00;;;9.20;57.40;;;;;;2064074;28;20026;-85
2022/03/23 04:23:36;;;;;;;12.57;7.40;;;9.20;56.90;;;;;;2068889;28;20077;-84
2022/03/23 04:24:37;;;;;;;12.10;7.70;;;9.20;56.90;;;;;;2071593;28;20124;-85
2022/03/23 04:25:37;;;;;;;11.40;7.05;;;9.20;56.80;;;;;;2072983;28;20548;-84
2022/03/23 04:26:38;;;;;;;12.57;7.90;;;9.20;56.70;;;;;;2073450;28;20117;-84
2022/03/23 04:28:04;;;;;;;11.63;7.50;;;9.20;56.70;;;;;;2073174;28;20034;-85
2022/03/23 04:29:06;;;;;;;11.88;6.80;;;9.20;56.60;;;;;;2071666;28;20038;-85
2022/03/23 04:30:07;;;;;;;11.20;7.22;;;9.20;56.50;;;;;;2073018;28;20060;-85
2022/03/23 04:31:08;;;;;;;11.55;7.47;;;9.20;56.40;;;;;;2065460;28;20026;-85
2022/03/23 04:32:10;;;;;;;11.40;7.28;;;9.30;56.40;;;;;;2065025;28;20027;-85
2022/03/23 04:33:10;;;;;;;11.70;7.45;;;9.30;56.30;;;;;;2065709;28;20026;-85
2022/03/23 04:34:11;;;;;;;12.00;7.57;;;9.30;56.20;;;;;;2056338;28;20568;-85
2022/03/23 04:35:15;;;;;;;12.90;7.55;;;9.30;56.20;;;;;;2051920;28;20130;-85
2022/03/23 04:36:15;;;;;;;11.70;7.15;;;9.30;56.20;;;;;;2063801;28;20023;-85
2022/03/23 04:37:16;;;;;;;11.90;7.47;;;9.30;56.10;;;;;;2057333;28;20109;-84
2022/03/23 04:38:17;;;;;;;14.68;7.72;;;9.30;56.00;;;;;;2056265;28;20030;-85
2022/03/23 04:39:17;;;;;;;13.05;8.13;;;9.30;56.00;;;;;;2064970;28;20086;-85
2022/03/23 04:40:19;;;;;;;12.23;7.40;;;9.30;56.00;;;;;;2073088;28;20037;-85
2022/03/23 04:41:20;;;;;;;12.55;7.72;;;9.30;56.00;;;;;;2073302;28;20512;-84
2022/03/23 04:42:21;;;;;;;13.60;8.32;;;9.40;56.60;;;;;;2057223;28;20062;-85
2022/03/23 04:43:21;;;;;;;11.50;7.10;;;9.30;55.90;;;;;;2049208;28;20135;-84
2022/03/23 04:44:22;;;;;;;12.30;7.70;;;9.30;55.90;;;;;;2062507;28;20030;-84
2022/03/23 04:45:22;;;;;;;12.00;7.15;;;9.30;55.90;;;;;;2067828;28;20054;-84
2022/03/23 04:46:23;;;;;;;13.15;7.70;;;9.30;55.80;;;;;;2073129;28;20523;-85
2022/03/23 04:47:24;;;;;;;12.73;7.80;;;9.30;55.80;;;;;;2064777;28;20126;-85
2022/03/23 04:48:24;;;;;;;11.20;7.05;;;9.30;55.70;;;;;;2065076;28;20042;-85
2022/03/23 04:49:25;;;;;;;12.35;7.82;;;9.30;55.70;;;;;;2056796;28;20105;-85
2022/03/23 04:50:26;;;;;;;12.50;7.57;;;9.30;55.70;;;;;;2065001;28;20058;-85
2022/03/23 04:51:26;;;;;;;13.43;8.30;;;9.30;55.80;;;;;;2065153;28;20104;-85
2022/03/23 04:52:27;;;;;;;13.15;8.00;;;9.30;55.70;;;;;;2073066;28;20400;-84
2022/03/23 04:53:27;;;;;;;13.30;7.80;;;9.30;56.30;;;;;;2073104;28;20072;-85
2022/03/23 04:54:28;;;;;;;12.48;7.90;;;9.30;55.60;;;;;;2071609;28;20377;-85
2022/03/23 04:55:29;;;;;;;13.45;7.88;;;9.30;55.50;;;;;;2071407;28;21481;-85
2022/03/23 04:56:30;;;;;;;12.60;7.90;;;9.30;55.40;;;;;;2063972;28;20113;-84
2022/03/23 04:57:31;;;;;;;12.95;8.02;;;9.30;55.40;;;;;;2056960;28;20033;-85
2022/03/23 04:58:31;;;;;;;11.27;7.55;;;9.40;55.30;;;;;;2057084;28;20029;-85
2022/03/23 04:59:32;;;;;;;13.93;8.05;;;9.40;55.30;;;;;;2069857;28;20033;-85
2022/03/23 05:00:34;;;;;;;12.95;8.18;;;9.40;55.30;;;;;;2073003;28;20145;-85
2022/03/23 05:01:35;;;;;;;12.77;7.97;;;9.40;55.30;;;;;;2073624;28;20030;-85
2022/03/23 05:02:39;;;;;;;12.70;7.53;;;9.40;55.20;;;;;;2072856;28;20034;-85
2022/03/23 05:03:40;;;;;;;13.25;8.00;;;9.40;55.20;;;;;;2064914;28;20034;-85
2022/03/23 05:04:41;;;;;;;11.68;7.72;;;9.40;55.20;;;;;;2065514;28;20029;-85
2022/03/23 05:05:43;;;;;;;12.65;7.82;;;9.40;55.30;;;;;;2063189;28;20076;-85
2022/03/23 05:06:44;;;;;;;13.52;8.13;;;9.40;55.40;;;;;;2071506;28;20022;-85
2022/03/23 05:07:46;;;;;;;12.60;8.10;;;9.40;55.50;;;;;;2073010;28;20484;-85
2022/03/23 05:08:46;;;;;;;13.15;7.90;;;9.40;55.70;;;;;;2065081;28;20596;-85
2022/03/23 05:09:47;;;;;;;12.10;7.50;;;9.40;55.80;;;;;;2062541;28;20023;-84
2022/03/23 05:10:47;;;;;;;12.98;8.35;;;9.30;55.90;;;;;;2056393;28;20031;-85
2022/03/23 05:11:48;;;;;;;12.60;7.85;;;9.30;56.00;;;;;;2048808;28;20086;-85
2022/03/23 05:12:50;;;;;;;11.88;7.50;;;9.20;56.20;;;;;;2048843;28;20032;-85
2022/03/23 05:13:51;;;;;;;12.77;7.63;;;9.20;56.30;;;;;;2067352;28;20120;-85
2022/03/23 05:14:51;;;;;;;13.20;8.10;;;9.20;56.50;;;;;;2072019;28;20041;-85
2022/03/23 05:15:52;;;;;;;11.88;7.35;;;9.10;56.40;;;;;;2062802;28;20081;-84
2022/03/23 05:16:53;;;;;;;11.93;7.55;;;9.10;56.50;;;;;;2063398;28;20035;-84
2022/03/23 05:17:53;;;;;;;11.27;7.45;;;9.10;56.50;;;;;;2059587;28;20057;-85
2022/03/23 05:18:54;;;;;;;11.85;7.57;;;9.10;56.50;;;;;;2056949;28;20023;-85
2022/03/23 05:19:55;;;;;;;12.63;8.07;;;9.10;56.50;;;;;;2072054;28;20030;-84
2022/03/23 05:20:55;;;;;;;12.65;8.27;;;9.00;56.50;;;;;;2064419;28;20047;-85
2022/03/23 05:21:56;;;;;;;13.80;8.10;;;9.00;56.50;;;;;;2064766;28;20452;-84
2022/03/23 05:22:57;;;;;;;12.98;7.90;;;9.00;56.40;;;;;;2071360;28;20022;-85
2022/03/23 05:23:57;;;;;;;12.75;8.20;;;9.00;56.40;;;;;;2063836;28;20065;-84
2022/03/23 05:24:58;;;;;;;12.65;7.97;;;9.00;56.40;;;;;;2067882;28;20057;-85
2022/03/23 05:25:59;;;;;;;12.68;7.95;;;9.00;56.40;;;;;;2077105;28;20037;-85
2022/03/23 05:26:59;;;;;;;13.68;8.45;;;9.00;56.50;;;;;;2068608;28;20034;-83
2022/03/23 05:28:00;;;;;;;13.02;8.23;;;9.00;56.50;;;;;;2064715;28;20036;-84
2022/03/23 05:29:02;;;;;;;12.55;7.53;;;9.00;56.50;;;;;;2063698;28;20393;-85
2022/03/23 05:30:05;;;;;;;12.85;7.80;;;9.00;56.50;;;;;;2072958;28;20412;-84
2022/03/23 05:31:06;;;;;;;13.93;8.00;;;9.00;56.50;;;;;;2072754;28;20041;-85
2022/03/23 05:32:07;;;;;;;12.93;8.02;;;8.90;56.50;;;;;;2072862;28;20022;-84
2022/03/23 05:33:08;;;;;;;12.68;7.97;;;9.00;56.50;;;;;;2072404;28;20056;-84
2022/03/23 05:34:08;;;;;;;13.95;8.48;;;9.00;56.50;;;;;;2056375;28;20046;-84
2022/03/23 05:35:11;;;;;;;12.23;7.28;;;8.90;56.60;;;;;;2064542;28;20493;-85
2022/03/23 05:36:12;;;;;;;15.45;7.95;;;8.90;56.60;;;;;;2072623;28;20388;-85
2022/03/23 05:37:13;;;;;;;13.25;8.35;;;8.90;56.70;;;;;;2063265;28;20038;-85
2022/03/23 05:38:14;;;;;;;12.02;7.68;;;8.90;56.70;;;;;;2072082;28;20026;-85
2022/03/23 05:39:15;;;;;;;12.82;7.85;;;8.90;56.80;;;;;;2070678;28;20111;-84
2022/03/23 05:40:15;;;;;;;14.90;9.35;;;8.90;56.70;;;;;;2061889;28;20030;-84
2022/03/23 05:41:16;;;;;;;13.07;8.45;;;8.90;56.70;;;;;;2062017;28;20045;-84
2022/03/23 05:42:17;;;;;;;15.13;8.52;;;8.90;56.70;;;;;;2071951;28;20030;-85
2022/03/23 05:43:19;;;;;;;14.52;8.75;;;8.90;56.70;;;;;;2072990;28;20060;-85
2022/03/23 05:44:20;;;;;;;14.25;8.77;;;8.90;56.70;;;;;;2070652;28;20113;-84
2022/03/23 05:45:20;;;;;;;14.23;8.50;;;8.90;56.70;;;;;;2060892;28;20430;-83
2022/03/23 05:46:21;;;;;;;13.50;8.75;;;8.90;56.60;;;;;;2062944;28;20069;-84